sensor_id;sensor_type;location;lat;lon;timestamp;pressure;altitude;pressure_sealevel;temperature;humidity
55490;BME280;44029;52.956;4.772;2023-07-20T00:02:13;101584.59;;;19.42;100.00
55490;BME280;44029;52.956;4.772;2023-07-20T00:04:38;101581.31;;;19.35;100.00
55490;BME280;44029;52.956;4.772;2023-07-20T00:07:04;101588.69;;;19.49;100.00
55490;BME280;44029;52.956;4.772;2023-07-20T00:09:29;101589.75;;;19.54;100.00
55490;BME280;44029;52.956;4.772;2023-07-20T00:11:55;101578.28;;;19.31;100.00
55490;BME280;44029;52.956;4.772;2023-07-20T00:14:21;101586.34;;;19.33;100.00
55490;BME280;44029;52.956;4.772;2023-07-20T00:16:46;101593.41;;;19.15;100.00
55490;BME280;44029;52.956;4.772;2023-07-20T00:19:14;101584.38;;;19.33;100.00
55490;BME280;44029;52.956;4.772;2023-07-20T00:21:39;101588.94;;;19.19;100.00
55490;BME280;44029;52.956;4.772;2023-07-20T00:24:06;101590.06;;;19.18;100.00
55490;BME280;44029;52.956;4.772;2023-07-20T00:26:31;101591.66;;;19.58;100.00
55490;BME280;44029;52.956;4.772;2023-07-20T00:28:57;101584.09;;;19.35;100.00
55490;BME280;44029;52.956;4.772;2023-07-20T00:31:22;101589.00;;;19.43;100.00
55490;BME280;44029;52.956;4.772;2023-07-20T00:33:47;101591.53;;;19.39;100.00
55490;BME280;44029;52.956;4.772;2023-07-20T00:36:14;101592.63;;;19.43;100.00
55490;BME280;44029;52.956;4.772;2023-07-20T00:38:39;101595.94;;;19.45;100.00
55490;BME280;44029;52.956;4.772;2023-07-20T00:41:06;101586.13;;;19.24;100.00
55490;BME280;44029;52.956;4.772;2023-07-20T00:43:31;101590.97;;;19.42;100.00
55490;BME280;44029;52.956;4.772;2023-07-20T00:45:56;101592.50;;;19.24;100.00
55490;BME280;44029;52.956;4.772;2023-07-20T00:48:23;101588.22;;;19.37;100.00
55490;BME280;44029;52.956;4.772;2023-07-20T00:50:48;101590.63;;;19.49;100.00
55490;BME280;44029;52.956;4.772;2023-07-20T00:53:15;101585.00;;;19.54;100.00
55490;BME280;44029;52.956;4.772;2023-07-20T00:55:40;101587.00;;;19.48;100.00
55490;BME280;44029;52.956;4.772;2023-07-20T00:58:06;101586.66;;;19.26;100.00
55490;BME280;44029;52.956;4.772;2023-07-20T01:00:32;101583.56;;;19.33;100.00
55490;BME280;44029;52.956;4.772;2023-07-20T01:02:57;101583.59;;;19.27;100.00
55490;BME280;44029;52.956;4.772;2023-07-20T01:05:27;101581.97;;;19.50;100.00
55490;BME280;44029;52.956;4.772;2023-07-20T01:07:58;101585.63;;;19.17;100.00
55490;BME280;44029;52.956;4.772;2023-07-20T01:10:36;101578.25;;;19.36;100.00
55490;BME280;44029;52.956;4.772;2023-07-20T01:13:06;101579.59;;;19.39;100.00
55490;BME280;44029;52.956;4.772;2023-07-20T01:15:34;101585.13;;;19.44;100.00
55490;BME280;44029;52.956;4.772;2023-07-20T01:17:59;101585.22;;;19.28;100.00
55490;BME280;44029;52.956;4.772;2023-07-20T01:20:26;101575.00;;;19.24;100.00
55490;BME280;44029;52.956;4.772;2023-07-20T01:30:49;101580.41;;;19.39;100.00
55490;BME280;44029;52.956;4.772;2023-07-20T01:33:16;101584.13;;;19.29;100.00
55490;BME280;44029;52.956;4.772;2023-07-20T01:35:43;101588.16;;;19.13;100.00
55490;BME280;44029;52.956;4.772;2023-07-20T01:38:12;101588.66;;;19.20;100.00
55490;BME280;44029;52.956;4.772;2023-07-20T01:40:38;101588.97;;;19.13;100.00
55490;BME280;44029;52.956;4.772;2023-07-20T01:43:05;101586.56;;;19.02;100.00
55490;BME280;44029;52.956;4.772;2023-07-20T01:45:30;101585.53;;;18.92;100.00
55490;BME280;44029;52.956;4.772;2023-07-20T01:47:55;101584.00;;;19.10;100.00
55490;BME280;44029;52.956;4.772;2023-07-20T01:50:21;101584.97;;;18.96;100.00
55490;BME280;44029;52.956;4.772;2023-07-20T01:52:46;101582.22;;;18.90;100.00
55490;BME280;44029;52.956;4.772;2023-07-20T01:55:11;101580.88;;;18.83;100.00
55490;BME280;44029;52.956;4.772;2023-07-20T01:57:37;101576.75;;;19.15;100.00
55490;BME280;44029;52.956;4.772;2023-07-20T02:00:03;101579.16;;;18.92;100.00
55490;BME280;44029;52.956;4.772;2023-07-20T02:02:29;101574.28;;;18.68;100.00
55490;BME280;44029;52.956;4.772;2023-07-20T02:04:54;101570.41;;;19.09;100.00
55490;BME280;44029;52.956;4.772;2023-07-20T02:07:19;101570.81;;;18.92;100.00
55490;BME280;44029;52.956;4.772;2023-07-20T02:09:45;101570.78;;;18.97;100.00
55490;BME280;44029;52.956;4.772;2023-07-20T02:12:10;101567.53;;;19.19;100.00
55490;BME280;44029;52.956;4.772;2023-07-20T02:14:36;101574.75;;;19.20;100.00
55490;BME280;44029;52.956;4.772;2023-07-20T02:17:01;101566.97;;;19.22;100.00
55490;BME280;44029;52.956;4.772;2023-07-20T02:19:27;101566.53;;;19.39;100.00
55490;BME280;44029;52.956;4.772;2023-07-20T02:21:52;101569.88;;;19.07;100.00
55490;BME280;44029;52.956;4.772;2023-07-20T02:24:18;101571.72;;;19.17;100.00
55490;BME280;44029;52.956;4.772;2023-07-20T02:26:43;101569.88;;;19.07;100.00
55490;BME280;44029;52.956;4.772;2023-07-20T02:29:09;101572.19;;;19.29;100.00
55490;BME280;44029;52.956;4.772;2023-07-20T02:31:37;101567.13;;;19.36;100.00
55490;BME280;44029;52.956;4.772;2023-07-20T02:34:03;101567.13;;;19.36;100.00
55490;BME280;44029;52.956;4.772;2023-07-20T02:36:28;101568.53;;;19.34;100.00
55490;BME280;44029;52.956;4.772;2023-07-20T02:38:53;101568.69;;;19.13;100.00
55490;BME280;44029;52.956;4.772;2023-07-20T02:41:19;101572.38;;;19.08;100.00
55490;BME280;44029;52.956;4.772;2023-07-20T02:43:45;101572.22;;;19.24;100.00
55490;BME280;44029;52.956;4.772;2023-07-20T02:46:10;101574.38;;;19.32;100.00
55490;BME280;44029;52.956;4.772;2023-07-20T02:48:36;101578.09;;;19.17;100.00
55490;BME280;44029;52.956;4.772;2023-07-20T02:51:01;101585.56;;;19.27;100.00
55490;BME280;44029;52.956;4.772;2023-07-20T02:53:27;101581.56;;;19.38;100.00
55490;BME280;44029;52.956;4.772;2023-07-20T02:55:52;101587.94;;;19.39;100.00
55490;BME280;44029;52.956;4.772;2023-07-20T02:58:17;101588.84;;;19.29;100.00
55490;BME280;44029;52.956;4.772;2023-07-20T03:00:43;101588.66;;;19.20;100.00
55490;BME280;44029;52.956;4.772;2023-07-20T03:03:10;101591.00;;;19.37;100.00
55490;BME280;44029;52.956;4.772;2023-07-20T03:05:36;101594.31;;;19.39;100.00
55490;BME280;44029;52.956;4.772;2023-07-20T03:08:05;101593.53;;;19.34;100.00
55490;BME280;44029;52.956;4.772;2023-07-20T03:10:31;101593.00;;;19.31;100.00
55490;BME280;44029;52.956;4.772;2023-07-20T03:12:57;101593.13;;;19.16;100.00
55490;BME280;44029;52.956;4.772;2023-07-20T03:15:22;101599.97;;;19.29;100.00
55490;BME280;44029;52.956;4.772;2023-07-20T03:17:48;101591.28;;;19.36;100.00
55490;BME280;44029;52.956;4.772;2023-07-20T03:20:13;101595.06;;;19.50;100.00
55490;BME280;44029;52.956;4.772;2023-07-20T03:22:38;101602.16;;;19.61;100.00
55490;BME280;44029;52.956;4.772;2023-07-20T03:25:04;101597.28;;;19.48;100.00
55490;BME280;44029;52.956;4.772;2023-07-20T03:27:29;101597.38;;;19.38;100.00
55490;BME280;44029;52.956;4.772;2023-07-20T03:29:55;101606.22;;;19.45;100.00
55490;BME280;44029;52.956;4.772;2023-07-20T03:32:20;101601.91;;;19.58;100.00
55490;BME280;44029;52.956;4.772;2023-07-20T03:34:46;101596.59;;;19.32;100.00
55490;BME280;44029;52.956;4.772;2023-07-20T03:37:13;101597.38;;;19.67;100.00
55490;BME280;44029;52.956;4.772;2023-07-20T03:39:38;101605.91;;;19.46;100.00
55490;BME280;44029;52.956;4.772;2023-07-20T03:42:04;101602.00;;;19.53;100.00
55490;BME280;44029;52.956;4.772;2023-07-20T03:44:30;101599.63;;;19.36;100.00
55490;BME280;44029;52.956;4.772;2023-07-20T03:46:55;101601.81;;;19.39;100.00
55490;BME280;44029;52.956;4.772;2023-07-20T03:49:21;101599.34;;;19.66;100.00
55490;BME280;44029;52.956;4.772;2023-07-20T03:51:46;101602.06;;;19.77;100.00
55490;BME280;44029;52.956;4.772;2023-07-20T03:54:11;101598.44;;;20.00;100.00
55490;BME280;44029;52.956;4.772;2023-07-20T03:56:37;101604.41;;;20.37;100.00
55490;BME280;44029;52.956;4.772;2023-07-20T03:59:02;101593.28;;;20.80;100.00
55490;BME280;44029;52.956;4.772;2023-07-20T04:01:27;101590.19;;;20.81;100.00
55490;BME280;44029;52.956;4.772;2023-07-20T04:03:53;101597.19;;;21.50;100.00
55490;BME280;44029;52.956;4.772;2023-07-20T04:06:18;101592.47;;;21.64;100.00
55490;BME280;44029;52.956;4.772;2023-07-20T04:08:44;101595.31;;;22.47;100.00
55490;BME280;44029;52.956;4.772;2023-07-20T04:11:09;101589.50;;;22.57;100.00
55490;BME280;44029;52.956;4.772;2023-07-20T04:13:35;101591.34;;;22.62;100.00
55490;BME280;44029;52.956;4.772;2023-07-20T04:16:01;101598.28;;;23.46;100.00
55490;BME280;44029;52.956;4.772;2023-07-20T04:18:27;101586.50;;;23.81;100.00
55490;BME280;44029;52.956;4.772;2023-07-20T04:20:53;101590.84;;;23.96;100.00
55490;BME280;44029;52.956;4.772;2023-07-20T04:23:18;101585.75;;;24.55;100.00
55490;BME280;44029;52.956;4.772;2023-07-20T04:25:44;101596.69;;;24.25;100.00
55490;BME280;44029;52.956;4.772;2023-07-20T04:28:09;101585.03;;;24.32;100.00
55490;BME280;44029;52.956;4.772;2023-07-20T04:30:36;101586.91;;;25.15;100.00
55490;BME280;44029;52.956;4.772;2023-07-20T04:33:02;101584.63;;;25.00;100.00
55490;BME280;44029;52.956;4.772;2023-07-20T04:35:49;101590.53;;;25.89;100.00
55490;BME280;44029;52.956;4.772;2023-07-20T04:38:15;101598.31;;;24.93;100.00
55490;BME280;44029;52.956;4.772;2023-07-20T04:40:46;101610.00;;;23.26;100.00
55490;BME280;44029;52.956;4.772;2023-07-20T04:43:12;101601.06;;;22.65;100.00
55490;BME280;44029;52.956;4.772;2023-07-20T04:45:38;101600.69;;;22.16;100.00
55490;BME280;44029;52.956;4.772;2023-07-20T04:48:08;101608.78;;;22.31;100.00
55490;BME280;44029;52.956;4.772;2023-07-20T04:50:34;101604.72;;;22.24;100.00
55490;BME280;44029;52.956;4.772;2023-07-20T04:52:59;101605.34;;;22.48;100.00
55490;BME280;44029;52.956;4.772;2023-07-20T04:55:25;101600.28;;;22.87;100.00
55490;BME280;44029;52.956;4.772;2023-07-20T04:57:51;101603.00;;;22.78;100.00
55490;BME280;44029;52.956;4.772;2023-07-20T05:00:16;101607.06;;;22.72;100.00
55490;BME280;44029;52.956;4.772;2023-07-20T05:02:42;101600.25;;;22.50;100.00
55490;BME280;44029;52.956;4.772;2023-07-20T05:05:08;101602.25;;;22.36;100.00
55490;BME280;44029;52.956;4.772;2023-07-20T05:07:34;101598.72;;;22.16;100.00
55490;BME280;44029;52.956;4.772;2023-07-20T05:09:59;101603.47;;;22.02;100.00
55490;BME280;44029;52.956;4.772;2023-07-20T05:12:24;101601.75;;;22.34;100.00
55490;BME280;44029;52.956;4.772;2023-07-20T05:14:50;101605.88;;;22.36;100.00
55490;BME280;44029;52.956;4.772;2023-07-20T05:17:15;101611.88;;;22.44;100.00
55490;BME280;44029;52.956;4.772;2023-07-20T05:19:40;101615.16;;;22.18;100.00
55490;BME280;44029;52.956;4.772;2023-07-20T05:22:06;101615.47;;;22.03;100.00
55490;BME280;44029;52.956;4.772;2023-07-20T05:24:31;101618.47;;;22.20;100.00
55490;BME280;44029;52.956;4.772;2023-07-20T05:26:58;101609.72;;;22.77;100.00
55490;BME280;44029;52.956;4.772;2023-07-20T05:29:23;101607.94;;;22.31;100.00
55490;BME280;44029;52.956;4.772;2023-07-20T05:31:49;101610.81;;;22.53;100.00
55490;BME280;44029;52.956;4.772;2023-07-20T05:34:14;101611.25;;;22.33;100.00
55490;BME280;44029;52.956;4.772;2023-07-20T05:36:39;101612.84;;;22.75;100.00
55490;BME280;44029;52.956;4.772;2023-07-20T05:39:05;101609.78;;;22.49;100.00
55490;BME280;44029;52.956;4.772;2023-07-20T05:41:30;101603.84;;;22.65;100.00
55490;BME280;44029;52.956;4.772;2023-07-20T05:43:55;101607.00;;;22.22;100.00
55490;BME280;44029;52.956;4.772;2023-07-20T05:46:21;101608.41;;;21.77;100.00
55490;BME280;44029;52.956;4.772;2023-07-20T05:48:46;101609.34;;;22.00;100.00
55490;BME280;44029;52.956;4.772;2023-07-20T05:51:12;101611.13;;;22.24;100.00
55490;BME280;44029;52.956;4.772;2023-07-20T05:53:37;101618.88;;;21.99;100.00
55490;BME280;44029;52.956;4.772;2023-07-20T05:56:04;101621.34;;;22.15;100.00
55490;BME280;44029;52.956;4.772;2023-07-20T05:58:29;101615.34;;;22.08;100.00
55490;BME280;44029;52.956;4.772;2023-07-20T06:00:54;101616.59;;;21.88;100.00
55490;BME280;44029;52.956;4.772;2023-07-20T06:03:20;101624.50;;;21.67;100.00
55490;BME280;44029;52.956;4.772;2023-07-20T06:05:47;101615.03;;;21.49;100.00
55490;BME280;44029;52.956;4.772;2023-07-20T06:08:12;101621.91;;;21.70;100.00
55490;BME280;44029;52.956;4.772;2023-07-20T06:10:38;101620.44;;;21.45;100.00
55490;BME280;44029;52.956;4.772;2023-07-20T06:13:03;101619.94;;;21.71;100.00
55490;BME280;44029;52.956;4.772;2023-07-20T06:15:32;101617.59;;;21.78;100.00
55490;BME280;44029;52.956;4.772;2023-07-20T06:17:57;101609.91;;;21.56;100.00
55490;BME280;44029;52.956;4.772;2023-07-20T06:20:23;101619.25;;;21.93;100.00
55490;BME280;44029;52.956;4.772;2023-07-20T06:22:49;101627.78;;;22.15;100.00
55490;BME280;44029;52.956;4.772;2023-07-20T06:25:14;101623.50;;;22.04;100.00
55490;BME280;44029;52.956;4.772;2023-07-20T06:27:40;101621.59;;;22.32;100.00
55490;BME280;44029;52.956;4.772;2023-07-20T06:30:06;101613.16;;;25.19;100.00
55490;BME280;44029;52.956;4.772;2023-07-20T06:32:31;101608.00;;;27.93;100.00
55490;BME280;44029;52.956;4.772;2023-07-20T06:34:57;101608.81;;;29.08;96.50
55490;BME280;44029;52.956;4.772;2023-07-20T06:37:22;101615.00;;;25.80;100.00
55490;BME280;44029;52.956;4.772;2023-07-20T06:39:47;101617.59;;;24.68;100.00
55490;BME280;44029;52.956;4.772;2023-07-20T06:42:13;101622.38;;;25.11;100.00
55490;BME280;44029;52.956;4.772;2023-07-20T06:44:39;101623.94;;;23.93;100.00
55490;BME280;44029;52.956;4.772;2023-07-20T06:47:04;101617.38;;;23.76;100.00
55490;BME280;44029;52.956;4.772;2023-07-20T06:49:30;101630.41;;;22.76;100.00
55490;BME280;44029;52.956;4.772;2023-07-20T06:51:55;101624.28;;;23.24;100.00
55490;BME280;44029;52.956;4.772;2023-07-20T06:54:20;101619.72;;;23.51;100.00
55490;BME280;44029;52.956;4.772;2023-07-20T06:56:46;101629.47;;;23.17;100.00
55490;BME280;44029;52.956;4.772;2023-07-20T06:59:11;101627.97;;;23.11;100.00
55490;BME280;44029;52.956;4.772;2023-07-20T07:01:37;101629.81;;;22.65;100.00
55490;BME280;44029;52.956;4.772;2023-07-20T07:04:02;101629.47;;;23.17;100.00
55490;BME280;44029;52.956;4.772;2023-07-20T07:06:28;101618.03;;;25.75;100.00
55490;BME280;44029;52.956;4.772;2023-07-20T07:08:54;101616.06;;;27.15;100.00
55490;BME280;44029;52.956;4.772;2023-07-20T07:11:21;101622.56;;;28.20;95.30
55490;BME280;44029;52.956;4.772;2023-07-20T07:13:46;101620.34;;;28.01;94.95
55490;BME280;44029;52.956;4.772;2023-07-20T07:16:14;101617.34;;;29.24;87.35
55490;BME280;44029;52.956;4.772;2023-07-20T07:18:44;101626.03;;;29.75;80.66
55490;BME280;44029;52.956;4.772;2023-07-20T07:21:09;101623.97;;;28.38;87.79
55490;BME280;44029;52.956;4.772;2023-07-20T07:23:34;101631.78;;;27.37;95.99
55490;BME280;44029;52.956;4.772;2023-07-20T07:26:00;101637.22;;;26.11;100.00
55490;BME280;44029;52.956;4.772;2023-07-20T07:28:25;101627.63;;;26.51;100.00
55490;BME280;44029;52.956;4.772;2023-07-20T07:30:50;101633.97;;;28.36;91.21
55490;BME280;44029;52.956;4.772;2023-07-20T07:33:16;101634.63;;;27.50;92.59
55490;BME280;44029;52.956;4.772;2023-07-20T07:35:41;101636.09;;;26.42;94.87
55490;BME280;44029;52.956;4.772;2023-07-20T07:38:06;101643.94;;;25.63;100.00
55490;BME280;44029;52.956;4.772;2023-07-20T07:40:32;101644.28;;;25.70;100.00
55490;BME280;44029;52.956;4.772;2023-07-20T07:42:58;101641.44;;;25.79;100.00
55490;BME280;44029;52.956;4.772;2023-07-20T07:45:23;101634.44;;;25.29;100.00
55490;BME280;44029;52.956;4.772;2023-07-20T07:47:48;101638.53;;;24.79;100.00
55490;BME280;44029;52.956;4.772;2023-07-20T07:50:14;101652.66;;;24.17;100.00
55490;BME280;44029;52.956;4.772;2023-07-20T07:52:39;101648.31;;;24.42;100.00
55490;BME280;44029;52.956;4.772;2023-07-20T07:55:05;101650.44;;;23.96;100.00
55490;BME280;44029;52.956;4.772;2023-07-20T07:57:31;101654.06;;;24.37;100.00
55490;BME280;44029;52.956;4.772;2023-07-20T07:59:56;101648.44;;;25.03;100.00
55490;BME280;44029;52.956;4.772;2023-07-20T08:02:21;101647.63;;;25.55;100.00
55490;BME280;44029;52.956;4.772;2023-07-20T08:04:47;101653.53;;;26.27;99.94
55490;BME280;44029;52.956;4.772;2023-07-20T08:07:12;101650.13;;;27.56;89.65
55490;BME280;44029;52.956;4.772;2023-07-20T08:09:37;101653.16;;;27.51;90.60
55490;BME280;44029;52.956;4.772;2023-07-20T08:12:03;101661.13;;;27.49;85.07
55490;BME280;44029;52.956;4.772;2023-07-20T08:14:29;101653.78;;;28.02;86.07
55490;BME280;44029;52.956;4.772;2023-07-20T08:16:54;101654.13;;;28.13;79.72
55490;BME280;44029;52.956;4.772;2023-07-20T08:19:20;101665.22;;;28.67;78.81
55490;BME280;44029;52.956;4.772;2023-07-20T08:21:45;101661.13;;;27.82;81.93
55490;BME280;44029;52.956;4.772;2023-07-20T08:24:10;101665.84;;;27.90;83.76
55490;BME280;44029;52.956;4.772;2023-07-20T08:26:36;101659.88;;;27.58;82.28
55490;BME280;44029;52.956;4.772;2023-07-20T08:29:01;101671.06;;;28.38;76.73
55490;BME280;44029;52.956;4.772;2023-07-20T08:31:26;101658.69;;;28.91;76.00
55490;BME280;44029;52.956;4.772;2023-07-20T08:33:53;101664.94;;;28.48;73.83
55490;BME280;44029;52.956;4.772;2023-07-20T08:36:18;101657.44;;;28.27;76.37
55490;BME280;44029;52.956;4.772;2023-07-20T08:38:44;101663.78;;;28.61;72.86
55490;BME280;44029;52.956;4.772;2023-07-20T08:41:09;101659.78;;;28.25;74.87
55490;BME280;44029;52.956;4.772;2023-07-20T08:43:37;101658.75;;;29.20;72.88
55490;BME280;44029;52.956;4.772;2023-07-20T08:46:03;101658.16;;;28.49;73.00
55490;BME280;44029;52.956;4.772;2023-07-20T08:48:30;101666.25;;;28.38;78.54
55490;BME280;44029;52.956;4.772;2023-07-20T08:50:58;101669.63;;;28.31;75.50
55490;BME280;44029;52.956;4.772;2023-07-20T08:53:25;101666.31;;;27.59;80.66
55490;BME280;44029;52.956;4.772;2023-07-20T08:55:51;101673.78;;;28.34;76.31
55490;BME280;44029;52.956;4.772;2023-07-20T08:58:20;101664.22;;;28.88;75.02
55490;BME280;44029;52.956;4.772;2023-07-20T09:00:46;101671.06;;;28.25;77.83
55490;BME280;44029;52.956;4.772;2023-07-20T09:03:11;101670.69;;;27.69;77.25
55490;BME280;44029;52.956;4.772;2023-07-20T09:05:37;101667.56;;;27.49;82.69
55490;BME280;44029;52.956;4.772;2023-07-20T09:08:04;101681.09;;;27.35;80.37
55490;BME280;44029;52.956;4.772;2023-07-20T09:10:30;101676.22;;;26.04;87.43
55490;BME280;44029;52.956;4.772;2023-07-20T09:12:56;101682.09;;;25.46;94.42
55490;BME280;44029;52.956;4.772;2023-07-20T09:15:22;101676.97;;;25.66;96.83
55490;BME280;44029;52.956;4.772;2023-07-20T09:17:48;101682.69;;;26.04;95.79
55490;BME280;44029;52.956;4.772;2023-07-20T09:20:15;101684.41;;;26.27;93.43
55490;BME280;44029;52.956;4.772;2023-07-20T09:22:41;101675.41;;;26.03;93.10
55490;BME280;44029;52.956;4.772;2023-07-20T09:25:11;101677.47;;;26.24;90.52
55490;BME280;44029;52.956;4.772;2023-07-20T09:27:38;101671.69;;;26.29;91.18
55490;BME280;44029;52.956;4.772;2023-07-20T09:30:05;101674.25;;;26.04;92.19
55490;BME280;44029;52.956;4.772;2023-07-20T09:32:47;101673.81;;;26.32;90.40
55490;BME280;44029;52.956;4.772;2023-07-20T09:35:14;101676.69;;;25.41;98.54
55490;BME280;44029;52.956;4.772;2023-07-20T09:37:41;101671.88;;;25.16;95.02
55490;BME280;44029;52.956;4.772;2023-07-20T09:40:10;101676.66;;;25.06;97.84
55490;BME280;44029;52.956;4.772;2023-07-20T09:42:36;101679.72;;;25.83;92.33
55490;BME280;44029;52.956;4.772;2023-07-20T09:45:03;101682.59;;;25.57;92.72
55490;BME280;44029;52.956;4.772;2023-07-20T09:47:35;101676.13;;;25.13;97.03
55490;BME280;44029;52.956;4.772;2023-07-20T09:50:02;101679.13;;;25.08;97.29
55490;BME280;44029;52.956;4.772;2023-07-20T09:52:29;101681.09;;;25.69;95.85
55490;BME280;44029;52.956;4.772;2023-07-20T09:54:55;101687.56;;;25.34;95.63
55490;BME280;44029;52.956;4.772;2023-07-20T09:57:21;101669.88;;;24.90;100.00
55490;BME280;44029;52.956;4.772;2023-07-20T09:59:47;101669.22;;;24.93;100.00
55490;BME280;44029;52.956;4.772;2023-07-20T10:02:25;101673.69;;;25.03;100.00
55490;BME280;44029;52.956;4.772;2023-07-20T10:04:53;101661.78;;;25.15;98.97
55490;BME280;44029;52.956;4.772;2023-07-20T10:07:19;101673.88;;;25.33;96.16
55490;BME280;44029;52.956;4.772;2023-07-20T10:09:48;101666.44;;;25.54;100.00
55490;BME280;44029;52.956;4.772;2023-07-20T10:12:17;101676.09;;;25.83;99.17
55490;BME280;44029;52.956;4.772;2023-07-20T10:14:53;101668.72;;;25.61;98.99
55490;BME280;44029;52.956;4.772;2023-07-20T10:17:20;101661.13;;;24.92;94.65
55490;BME280;44029;52.956;4.772;2023-07-20T10:19:51;101667.09;;;25.51;97.19
55490;BME280;44029;52.956;4.772;2023-07-20T10:22:25;101665.63;;;25.27;98.30
55490;BME280;44029;52.956;4.772;2023-07-20T10:24:51;101671.66;;;24.77;99.49
55490;BME280;44029;52.956;4.772;2023-07-20T10:27:20;101673.28;;;24.61;100.00
55490;BME280;44029;52.956;4.772;2023-07-20T10:29:46;101669.19;;;24.76;100.00
55490;BME280;44029;52.956;4.772;2023-07-20T10:32:12;101667.72;;;24.87;100.00
55490;BME280;44029;52.956;4.772;2023-07-20T10:34:38;101660.16;;;25.14;99.82
55490;BME280;44029;52.956;4.772;2023-07-20T10:37:05;101663.78;;;25.40;97.71
55490;BME280;44029;52.956;4.772;2023-07-20T10:39:33;101667.78;;;25.31;99.61
55490;BME280;44029;52.956;4.772;2023-07-20T10:42:19;101665.75;;;25.66;96.71
55490;BME280;44029;52.956;4.772;2023-07-20T10:44:44;101666.53;;;25.93;97.28
55490;BME280;44029;52.956;4.772;2023-07-20T10:47:13;101655.88;;;26.16;97.67
55490;BME280;44029;52.956;4.772;2023-07-20T10:49:57;101661.75;;;25.93;95.33
55490;BME280;44029;52.956;4.772;2023-07-20T10:52:23;101663.88;;;25.96;94.80
55490;BME280;44029;52.956;4.772;2023-07-20T10:54:48;101666.28;;;25.33;99.13
55490;BME280;44029;52.956;4.772;2023-07-20T10:57:24;101670.06;;;25.02;100.00
55490;BME280;44029;52.956;4.772;2023-07-20T10:59:50;101659.16;;;25.44;100.00
55490;BME280;44029;52.956;4.772;2023-07-20T11:02:18;101665.03;;;25.95;96.81
55490;BME280;44029;52.956;4.772;2023-07-20T11:04:46;101662.28;;;25.60;96.99
55490;BME280;44029;52.956;4.772;2023-07-20T11:07:35;101668.34;;;25.97;98.73
55490;BME280;44029;52.956;4.772;2023-07-20T11:10:13;101664.03;;;26.00;100.00
55490;BME280;44029;52.956;4.772;2023-07-20T11:12:40;101666.16;;;26.12;97.79
55490;BME280;44029;52.956;4.772;2023-07-20T11:15:05;101664.44;;;26.28;96.54
55490;BME280;44029;52.956;4.772;2023-07-20T11:17:31;101655.56;;;26.17;98.21
55490;BME280;44029;52.956;4.772;2023-07-20T11:19:59;101664.47;;;26.11;96.17
55490;BME280;44029;52.956;4.772;2023-07-20T11:22:26;101663.31;;;25.21;100.00
55490;BME280;44029;52.956;4.772;2023-07-20T11:24:55;101659.84;;;25.33;100.00
55490;BME280;44029;52.956;4.772;2023-07-20T11:27:21;101661.97;;;25.53;100.00
55490;BME280;44029;52.956;4.772;2023-07-20T11:29:48;101661.69;;;26.11;96.99
55490;BME280;44029;52.956;4.772;2023-07-20T11:32:23;101655.09;;;25.89;98.03
55490;BME280;44029;52.956;4.772;2023-07-20T11:34:49;101650.06;;;25.04;100.00
55490;BME280;44029;52.956;4.772;2023-07-20T11:37:15;101648.91;;;25.66;100.00
55490;BME280;44029;52.956;4.772;2023-07-20T11:39:41;101650.41;;;25.11;99.92
55490;BME280;44029;52.956;4.772;2023-07-20T11:42:06;101648.84;;;25.83;99.33
55490;BME280;44029;52.956;4.772;2023-07-20T11:44:32;101644.81;;;25.37;100.00
55490;BME280;44029;52.956;4.772;2023-07-20T11:47:05;101644.53;;;25.95;100.00
55490;BME280;44029;52.956;4.772;2023-07-20T11:49:42;101651.25;;;25.46;100.00
55490;BME280;44029;52.956;4.772;2023-07-20T11:52:09;101647.44;;;25.51;100.00
55490;BME280;44029;52.956;4.772;2023-07-20T11:54:39;101648.28;;;25.43;100.00
55490;BME280;44029;52.956;4.772;2023-07-20T11:57:05;101647.25;;;25.65;100.00
55490;BME280;44029;52.956;4.772;2023-07-20T11:59:31;101640.09;;;25.85;100.00
55490;BME280;44029;52.956;4.772;2023-07-20T12:01:58;101643.16;;;25.54;100.00
55490;BME280;44029;52.956;4.772;2023-07-20T12:04:26;101640.50;;;25.57;100.00
55490;BME280;44029;52.956;4.772;2023-07-20T12:06:53;101634.63;;;26.06;100.00
55490;BME280;44029;52.956;4.772;2023-07-20T12:09:19;101642.97;;;26.23;100.00
55490;BME280;44029;52.956;4.772;2023-07-20T12:11:44;101647.63;;;26.11;100.00
55490;BME280;44029;52.956;4.772;2023-07-20T12:14:13;101647.72;;;25.76;100.00
55490;BME280;44029;52.956;4.772;2023-07-20T12:16:38;101636.38;;;25.63;100.00
55490;BME280;44029;52.956;4.772;2023-07-20T12:19:05;101645.53;;;25.99;100.00
55490;BME280;44029;52.956;4.772;2023-07-20T12:21:31;101647.47;;;26.07;100.00
55490;BME280;44029;52.956;4.772;2023-07-20T12:23:58;101641.06;;;26.07;100.00
55490;BME280;44029;52.956;4.772;2023-07-20T12:26:25;101647.66;;;26.40;99.33
55490;BME280;44029;52.956;4.772;2023-07-20T12:28:51;101651.38;;;26.23;99.63
55490;BME280;44029;52.956;4.772;2023-07-20T12:31:17;101652.28;;;25.89;99.87
55490;BME280;44029;52.956;4.772;2023-07-20T12:33:42;101646.13;;;26.13;100.00
55490;BME280;44029;52.956;4.772;2023-07-20T12:36:08;101648.00;;;25.92;100.00
55490;BME280;44029;52.956;4.772;2023-07-20T12:38:34;101642.97;;;26.53;100.00
55490;BME280;44029;52.956;4.772;2023-07-20T12:41:01;101639.19;;;26.19;100.00
55490;BME280;44029;52.956;4.772;2023-07-20T12:43:26;101631.22;;;27.02;98.94
55490;BME280;44029;52.956;4.772;2023-07-20T12:45:52;101638.47;;;26.61;97.30
55490;BME280;44029;52.956;4.772;2023-07-20T12:48:17;101636.91;;;26.42;100.00